sensor_id;sensor_type;location;lat;lon;timestamp;P1;durP1;ratioP1;P2;durP2;ratioP2
60935;SDS011;46804;51.786;19.520;2023-07-29T00:02:03;19.98;;;10.82;;
60935;SDS011;46804;51.786;19.520;2023-07-29T00:06:05;17.70;;;10.70;;
60935;SDS011;46804;51.786;19.520;2023-07-29T00:10:06;20.25;;;10.90;;
60935;SDS011;46804;51.786;19.520;2023-07-29T00:14:07;13.63;;;9.00;;
60935;SDS011;46804;51.786;19.520;2023-07-29T00:18:08;16.63;;;10.15;;
60935;SDS011;46804;51.786;19.520;2023-07-29T00:22:08;11.00;;;9.25;;
60935;SDS011;46804;51.786;19.520;2023-07-29T00:26:09;16.00;;;9.48;;
60935;SDS011;46804;51.786;19.520;2023-07-29T00:30:10;11.55;;;8.82;;
60935;SDS011;46804;51.786;19.520;2023-07-29T00:34:11;17.63;;;9.40;;
60935;SDS011;46804;51.786;19.520;2023-07-29T00:38:17;13.38;;;8.98;;
60935;SDS011;46804;51.786;19.520;2023-07-29T00:42:18;14.60;;;9.82;;
60935;SDS011;46804;51.786;19.520;2023-07-29T00:46:18;13.25;;;10.13;;
60935;SDS011;46804;51.786;19.520;2023-07-29T00:50:20;18.17;;;9.38;;
60935;SDS011;46804;51.786;19.520;2023-07-29T00:54:21;14.40;;;9.57;;
60935;SDS011;46804;51.786;19.520;2023-07-29T00:58:22;15.27;;;10.48;;
60935;SDS011;46804;51.786;19.520;2023-07-29T01:02:23;17.45;;;10.10;;
60935;SDS011;46804;51.786;19.520;2023-07-29T01:10:51;13.57;;;10.05;;
60935;SDS011;46804;51.786;19.520;2023-07-29T01:15:10;18.05;;;10.85;;
60935;SDS011;46804;51.786;19.520;2023-07-29T01:19:20;15.13;;;9.52;;
60935;SDS011;46804;51.786;19.520;2023-07-29T01:23:43;15.30;;;9.95;;
60935;SDS011;46804;51.786;19.520;2023-07-29T01:27:45;13.25;;;9.48;;
60935;SDS011;46804;51.786;19.520;2023-07-29T01:31:46;11.23;;;9.10;;
60935;SDS011;46804;51.786;19.520;2023-07-29T01:36:07;11.15;;;9.25;;
60935;SDS011;46804;51.786;19.520;2023-07-29T01:40:13;13.43;;;8.95;;
60935;SDS011;46804;51.786;19.520;2023-07-29T01:44:15;12.45;;;8.80;;
60935;SDS011;46804;51.786;19.520;2023-07-29T01:48:17;15.13;;;9.45;;
60935;SDS011;46804;51.786;19.520;2023-07-29T01:52:17;29.95;;;10.10;;
60935;SDS011;46804;51.786;19.520;2023-07-29T01:56:18;12.70;;;9.07;;
60935;SDS011;46804;51.786;19.520;2023-07-29T02:00:19;14.18;;;9.48;;
60935;SDS011;46804;51.786;19.520;2023-07-29T02:04:20;18.17;;;11.85;;
60935;SDS011;46804;51.786;19.520;2023-07-29T02:08:20;13.85;;;10.75;;
60935;SDS011;46804;51.786;19.520;2023-07-29T02:12:21;21.20;;;12.20;;
60935;SDS011;46804;51.786;19.520;2023-07-29T02:16:22;14.32;;;11.50;;
60935;SDS011;46804;51.786;19.520;2023-07-29T02:20:23;18.00;;;11.40;;
60935;SDS011;46804;51.786;19.520;2023-07-29T02:24:23;19.08;;;12.35;;
60935;SDS011;46804;51.786;19.520;2023-07-29T02:28:24;16.42;;;12.45;;
60935;SDS011;46804;51.786;19.520;2023-07-29T02:32:25;16.52;;;11.32;;
60935;SDS011;46804;51.786;19.520;2023-07-29T02:36:25;18.83;;;11.63;;
60935;SDS011;46804;51.786;19.520;2023-07-29T02:40:26;15.90;;;10.88;;
60935;SDS011;46804;51.786;19.520;2023-07-29T02:44:28;18.80;;;11.63;;
60935;SDS011;46804;51.786;19.520;2023-07-29T02:48:29;13.43;;;11.38;;
60935;SDS011;46804;51.786;19.520;2023-07-29T02:52:30;19.50;;;11.90;;
60935;SDS011;46804;51.786;19.520;2023-07-29T02:56:31;25.33;;;14.77;;
60935;SDS011;46804;51.786;19.520;2023-07-29T03:00:31;31.75;;;13.05;;
60935;SDS011;46804;51.786;19.520;2023-07-29T03:04:33;60.45;;;15.90;;
60935;SDS011;46804;51.786;19.520;2023-07-29T03:08:34;85.82;;;16.77;;
60935;SDS011;46804;51.786;19.520;2023-07-29T03:12:35;27.25;;;14.48;;
60935;SDS011;46804;51.786;19.520;2023-07-29T03:16:36;41.95;;;16.65;;
60935;SDS011;46804;51.786;19.520;2023-07-29T03:20:36;26.80;;;15.32;;
60935;SDS011;46804;51.786;19.520;2023-07-29T03:24:37;25.77;;;15.27;;
60935;SDS011;46804;51.786;19.520;2023-07-29T03:28:38;29.40;;;17.67;;
60935;SDS011;46804;51.786;19.520;2023-07-29T03:32:42;39.35;;;19.85;;
60935;SDS011;46804;51.786;19.520;2023-07-29T03:36:44;36.33;;;18.33;;
60935;SDS011;46804;51.786;19.520;2023-07-29T03:40:48;68.70;;;19.27;;
60935;SDS011;46804;51.786;19.520;2023-07-29T03:44:49;88.05;;;19.23;;
60935;SDS011;46804;51.786;19.520;2023-07-29T03:48:49;60.83;;;18.27;;
60935;SDS011;46804;51.786;19.520;2023-07-29T03:52:50;44.22;;;16.88;;
60935;SDS011;46804;51.786;19.520;2023-07-29T03:56:51;109.68;;;18.00;;
60935;SDS011;46804;51.786;19.520;2023-07-29T04:00:51;180.25;;;19.83;;
60935;SDS011;46804;51.786;19.520;2023-07-29T04:04:52;140.40;;;18.95;;
60935;SDS011;46804;51.786;19.520;2023-07-29T04:08:52;153.52;;;21.33;;
60935;SDS011;46804;51.786;19.520;2023-07-29T04:12:53;184.95;;;21.95;;
60935;SDS011;46804;51.786;19.520;2023-07-29T04:16:54;62.72;;;16.88;;
60935;SDS011;46804;51.786;19.520;2023-07-29T04:20:55;62.15;;;17.98;;
60935;SDS011;46804;51.786;19.520;2023-07-29T04:24:55;110.60;;;21.25;;
60935;SDS011;46804;51.786;19.520;2023-07-29T04:28:56;56.80;;;18.05;;
60935;SDS011;46804;51.786;19.520;2023-07-29T04:32:57;104.90;;;19.38;;
60935;SDS011;46804;51.786;19.520;2023-07-29T04:36:57;134.02;;;18.60;;
60935;SDS011;46804;51.786;19.520;2023-07-29T04:40:58;42.30;;;17.95;;
60935;SDS011;46804;51.786;19.520;2023-07-29T04:45:02;33.88;;;16.15;;
60935;SDS011;46804;51.786;19.520;2023-07-29T04:49:04;110.25;;;16.98;;
60935;SDS011;46804;51.786;19.520;2023-07-29T04:53:05;79.20;;;18.25;;
60935;SDS011;46804;51.786;19.520;2023-07-29T04:57:05;58.25;;;16.38;;
60935;SDS011;46804;51.786;19.520;2023-07-29T05:01:06;42.33;;;17.20;;
60935;SDS011;46804;51.786;19.520;2023-07-29T05:05:07;150.90;;;19.73;;
60935;SDS011;46804;51.786;19.520;2023-07-29T05:09:18;84.88;;;19.35;;
60935;SDS011;46804;51.786;19.520;2023-07-29T05:13:20;69.32;;;19.50;;
60935;SDS011;46804;51.786;19.520;2023-07-29T05:17:21;70.60;;;18.15;;
60935;SDS011;46804;51.786;19.520;2023-07-29T05:21:22;46.28;;;20.98;;
60935;SDS011;46804;51.786;19.520;2023-07-29T05:25:22;36.25;;;21.05;;
60935;SDS011;46804;51.786;19.520;2023-07-29T05:29:23;38.40;;;20.25;;
60935;SDS011;46804;51.786;19.520;2023-07-29T05:33:24;32.15;;;18.85;;
60935;SDS011;46804;51.786;19.520;2023-07-29T05:37:24;33.90;;;19.92;;
60935;SDS011;46804;51.786;19.520;2023-07-29T05:41:25;31.73;;;18.77;;
60935;SDS011;46804;51.786;19.520;2023-07-29T05:45:28;33.08;;;20.30;;
60935;SDS011;46804;51.786;19.520;2023-07-29T05:49:31;35.78;;;20.10;;
60935;SDS011;46804;51.786;19.520;2023-07-29T05:53:32;33.97;;;20.95;;
60935;SDS011;46804;51.786;19.520;2023-07-29T05:57:32;32.88;;;19.30;;
60935;SDS011;46804;51.786;19.520;2023-07-29T06:01:33;31.15;;;18.60;;
60935;SDS011;46804;51.786;19.520;2023-07-29T06:05:34;28.02;;;19.17;;
60935;SDS011;46804;51.786;19.520;2023-07-29T06:09:34;23.98;;;16.55;;
60935;SDS011;46804;51.786;19.520;2023-07-29T06:13:35;24.92;;;16.60;;
60935;SDS011;46804;51.786;19.520;2023-07-29T06:17:36;28.85;;;16.50;;
60935;SDS011;46804;51.786;19.520;2023-07-29T06:21:36;20.98;;;13.40;;
60935;SDS011;46804;51.786;19.520;2023-07-29T06:25:37;14.77;;;10.57;;
60935;SDS011;46804;51.786;19.520;2023-07-29T06:29:38;14.32;;;10.32;;
60935;SDS011;46804;51.786;19.520;2023-07-29T06:33:38;12.20;;;9.00;;
60935;SDS011;46804;51.786;19.520;2023-07-29T06:37:39;14.23;;;10.25;;
60935;SDS011;46804;51.786;19.520;2023-07-29T06:41:40;12.90;;;8.82;;
60935;SDS011;46804;51.786;19.520;2023-07-29T06:45:40;11.53;;;7.30;;
60935;SDS011;46804;51.786;19.520;2023-07-29T06:49:41;12.90;;;8.38;;
60935;SDS011;46804;51.786;19.520;2023-07-29T06:53:42;11.63;;;8.18;;
60935;SDS011;46804;51.786;19.520;2023-07-29T06:57:42;15.65;;;8.75;;
60935;SDS011;46804;51.786;19.520;2023-07-29T07:01:43;10.13;;;7.80;;
60935;SDS011;46804;51.786;19.520;2023-07-29T07:05:44;12.80;;;7.97;;
60935;SDS011;46804;51.786;19.520;2023-07-29T07:09:46;8.70;;;6.60;;
60935;SDS011;46804;51.786;19.520;2023-07-29T07:13:46;8.23;;;5.97;;
60935;SDS011;46804;51.786;19.520;2023-07-29T07:17:47;9.27;;;6.30;;
60935;SDS011;46804;51.786;19.520;2023-07-29T07:21:48;8.18;;;5.85;;
60935;SDS011;46804;51.786;19.520;2023-07-29T07:25:48;9.48;;;6.15;;
60935;SDS011;46804;51.786;19.520;2023-07-29T07:29:49;8.15;;;6.32;;
60935;SDS011;46804;51.786;19.520;2023-07-29T07:33:50;8.43;;;5.60;;
60935;SDS011;46804;51.786;19.520;2023-07-29T07:37:51;8.77;;;6.00;;
60935;SDS011;46804;51.786;19.520;2023-07-29T07:41:51;11.05;;;5.97;;
60935;SDS011;46804;51.786;19.520;2023-07-29T07:45:57;6.00;;;4.45;;
60935;SDS011;46804;51.786;19.520;2023-07-29T07:49:59;7.75;;;4.60;;
60935;SDS011;46804;51.786;19.520;2023-07-29T07:54:00;7.90;;;5.22;;
60935;SDS011;46804;51.786;19.520;2023-07-29T07:58:01;8.00;;;5.78;;
60935;SDS011;46804;51.786;19.520;2023-07-29T08:02:01;6.68;;;5.18;;
60935;SDS011;46804;51.786;19.520;2023-07-29T08:06:02;6.70;;;4.90;;
60935;SDS011;46804;51.786;19.520;2023-07-29T08:10:03;7.43;;;4.35;;
60935;SDS011;46804;51.786;19.520;2023-07-29T08:14:04;6.32;;;3.33;;
60935;SDS011;46804;51.786;19.520;2023-07-29T08:18:05;4.13;;;3.13;;
60935;SDS011;46804;51.786;19.520;2023-07-29T08:22:06;4.25;;;3.30;;
60935;SDS011;46804;51.786;19.520;2023-07-29T08:26:06;4.88;;;3.47;;
60935;SDS011;46804;51.786;19.520;2023-07-29T08:30:07;5.82;;;3.60;;
60935;SDS011;46804;51.786;19.520;2023-07-29T08:34:09;4.65;;;3.30;;
60935;SDS011;46804;51.786;19.520;2023-07-29T08:38:09;5.35;;;3.15;;
60935;SDS011;46804;51.786;19.520;2023-07-29T08:42:11;6.38;;;3.40;;
60935;SDS011;46804;51.786;19.520;2023-07-29T08:46:12;3.53;;;2.50;;
60935;SDS011;46804;51.786;19.520;2023-07-29T08:50:12;4.35;;;2.47;;
60935;SDS011;46804;51.786;19.520;2023-07-29T08:54:14;3.00;;;2.20;;
60935;SDS011;46804;51.786;19.520;2023-07-29T08:58:14;4.65;;;2.40;;
60935;SDS011;46804;51.786;19.520;2023-07-29T09:02:16;6.10;;;2.53;;
60935;SDS011;46804;51.786;19.520;2023-07-29T09:06:16;2.90;;;2.15;;
60935;SDS011;46804;51.786;19.520;2023-07-29T09:10:20;2.95;;;1.98;;
60935;SDS011;46804;51.786;19.520;2023-07-29T09:14:23;2.88;;;2.00;;
60935;SDS011;46804;51.786;19.520;2023-07-29T09:18:25;3.28;;;2.17;;
60935;SDS011;46804;51.786;19.520;2023-07-29T09:22:27;6.05;;;2.25;;
60935;SDS011;46804;51.786;19.520;2023-07-29T09:26:28;4.32;;;2.55;;
60935;SDS011;46804;51.786;19.520;2023-07-29T09:30:28;7.07;;;2.60;;
60935;SDS011;46804;51.786;19.520;2023-07-29T09:34:29;5.75;;;2.45;;
60935;SDS011;46804;51.786;19.520;2023-07-29T09:38:30;2.58;;;2.00;;
60935;SDS011;46804;51.786;19.520;2023-07-29T09:42:31;4.53;;;2.30;;
60935;SDS011;46804;51.786;19.520;2023-07-29T09:46:33;3.38;;;2.10;;
60935;SDS011;46804;51.786;19.520;2023-07-29T09:50:35;3.65;;;2.55;;
60935;SDS011;46804;51.786;19.520;2023-07-29T09:54:36;6.30;;;2.53;;
60935;SDS011;46804;51.786;19.520;2023-07-29T09:58:37;5.75;;;2.17;;
60935;SDS011;46804;51.786;19.520;2023-07-29T10:02:42;3.22;;;2.08;;
60935;SDS011;46804;51.786;19.520;2023-07-29T10:06:44;3.50;;;2.15;;
60935;SDS011;46804;51.786;19.520;2023-07-29T10:10:46;6.03;;;2.17;;
60935;SDS011;46804;51.786;19.520;2023-07-29T10:14:47;2.55;;;2.05;;
60935;SDS011;46804;51.786;19.520;2023-07-29T10:18:48;2.53;;;2.00;;
60935;SDS011;46804;51.786;19.520;2023-07-29T10:22:50;3.83;;;2.30;;
60935;SDS011;46804;51.786;19.520;2023-07-29T10:26:54;3.70;;;2.22;;
60935;SDS011;46804;51.786;19.520;2023-07-29T10:30:58;3.70;;;2.20;;
60935;SDS011;46804;51.786;19.520;2023-07-29T10:34:59;3.17;;;2.00;;
60935;SDS011;46804;51.786;19.520;2023-07-29T10:39:00;3.60;;;2.30;;
60935;SDS011;46804;51.786;19.520;2023-07-29T10:43:01;3.22;;;2.30;;
60935;SDS011;46804;51.786;19.520;2023-07-29T10:47:10;3.72;;;2.30;;
60935;SDS011;46804;51.786;19.520;2023-07-29T10:55:35;4.25;;;2.20;;
60935;SDS011;46804;51.786;19.520;2023-07-29T10:59:37;3.85;;;2.47;;
60935;SDS011;46804;51.786;19.520;2023-07-29T11:03:37;3.97;;;2.10;;
60935;SDS011;46804;51.786;19.520;2023-07-29T11:07:45;4.75;;;2.10;;
60935;SDS011;46804;51.786;19.520;2023-07-29T11:11:46;3.58;;;2.20;;
60935;SDS011;46804;51.786;19.520;2023-07-29T11:15:50;5.80;;;2.47;;
60935;SDS011;46804;51.786;19.520;2023-07-29T11:19:51;6.93;;;2.10;;
60935;SDS011;46804;51.786;19.520;2023-07-29T11:23:52;3.42;;;2.10;;
60935;SDS011;46804;51.786;19.520;2023-07-29T11:27:54;2.95;;;2.20;;
60935;SDS011;46804;51.786;19.520;2023-07-29T11:31:56;3.35;;;2.30;;
60935;SDS011;46804;51.786;19.520;2023-07-29T11:35:57;5.38;;;2.55;;
60935;SDS011;46804;51.786;19.520;2023-07-29T11:39:57;4.35;;;2.05;;
60935;SDS011;46804;51.786;19.520;2023-07-29T11:43:58;3.35;;;2.28;;
60935;SDS011;46804;51.786;19.520;2023-07-29T11:48:00;3.88;;;2.30;;
60935;SDS011;46804;51.786;19.520;2023-07-29T11:52:02;3.88;;;2.58;;
60935;SDS011;46804;51.786;19.520;2023-07-29T11:56:04;6.13;;;2.50;;
60935;SDS011;46804;51.786;19.520;2023-07-29T12:00:06;3.70;;;2.28;;
60935;SDS011;46804;51.786;19.520;2023-07-29T12:04:10;4.47;;;3.03;;
60935;SDS011;46804;51.786;19.520;2023-07-29T12:08:11;3.90;;;2.38;;
60935;SDS011;46804;51.786;19.520;2023-07-29T12:12:12;3.38;;;2.13;;
60935;SDS011;46804;51.786;19.520;2023-07-29T12:16:16;2.90;;;1.98;;
60935;SDS011;46804;51.786;19.520;2023-07-29T12:20:19;6.43;;;2.40;;
60935;SDS011;46804;51.786;19.520;2023-07-29T12:24:22;3.85;;;2.25;;
60935;SDS011;46804;51.786;19.520;2023-07-29T12:28:22;2.78;;;2.10;;
60935;SDS011;46804;51.786;19.520;2023-07-29T12:32:25;2.90;;;2.10;;
60935;SDS011;46804;51.786;19.520;2023-07-29T12:36:45;4.68;;;2.08;;
60935;SDS011;46804;51.786;19.520;2023-07-29T12:40:47;3.88;;;2.30;;
60935;SDS011;46804;51.786;19.520;2023-07-29T12:44:48;3.25;;;2.17;;
60935;SDS011;46804;51.786;19.520;2023-07-29T12:48:49;3.30;;;2.35;;
60935;SDS011;46804;51.786;19.520;2023-07-29T12:52:49;3.38;;;2.30;;
60935;SDS011;46804;51.786;19.520;2023-07-29T12:56:50;4.18;;;2.55;;
60935;SDS011;46804;51.786;19.520;2023-07-29T13:00:51;2.72;;;2.00;;
60935;SDS011;46804;51.786;19.520;2023-07-29T13:04:53;3.45;;;2.40;;
60935;SDS011;46804;51.786;19.520;2023-07-29T13:08:53;4.20;;;2.88;;
60935;SDS011;46804;51.786;19.520;2023-07-29T13:12:54;3.05;;;1.98;;
60935;SDS011;46804;51.786;19.520;2023-07-29T13:16:55;9.05;;;2.80;;
60935;SDS011;46804;51.786;19.520;2023-07-29T13:20:55;6.82;;;2.78;;
60935;SDS011;46804;51.786;19.520;2023-07-29T13:24:56;6.53;;;2.58;;
60935;SDS011;46804;51.786;19.520;2023-07-29T13:28:57;3.90;;;2.40;;
60935;SDS011;46804;51.786;19.520;2023-07-29T13:32:58;3.30;;;2.20;;
60935;SDS011;46804;51.786;19.520;2023-07-29T13:36:58;7.68;;;2.28;;
60935;SDS011;46804;51.786;19.520;2023-07-29T13:40:59;3.67;;;2.17;;
60935;SDS011;46804;51.786;19.520;2023-07-29T13:45:00;2.80;;;2.00;;
60935;SDS011;46804;51.786;19.520;2023-07-29T13:49:00;3.58;;;2.13;;
60935;SDS011;46804;51.786;19.520;2023-07-29T13:53:02;3.17;;;2.13;;
60935;SDS011;46804;51.786;19.520;2023-07-29T13:57:03;3.42;;;2.17;;
60935;SDS011;46804;51.786;19.520;2023-07-29T14:01:03;4.38;;;2.40;;
60935;SDS011;46804;51.786;19.520;2023-07-29T14:05:04;7.20;;;2.30;;
60935;SDS011;46804;51.786;19.520;2023-07-29T14:09:05;6.45;;;2.30;;
60935;SDS011;46804;51.786;19.520;2023-07-29T14:13:06;3.38;;;2.30;;
60935;SDS011;46804;51.786;19.520;2023-07-29T14:17:07;2.50;;;1.98;;
60935;SDS011;46804;51.786;19.520;2023-07-29T14:21:09;3.30;;;2.20;;
60935;SDS011;46804;51.786;19.520;2023-07-29T14:25:09;5.45;;;2.28;;
60935;SDS011;46804;51.786;19.520;2023-07-29T14:29:11;2.78;;;2.03;;
60935;SDS011;46804;51.786;19.520;2023-07-29T14:33:11;3.60;;;2.20;;
60935;SDS011;46804;51.786;19.520;2023-07-29T14:37:12;3.17;;;2.10;;
60935;SDS011;46804;51.786;19.520;2023-07-29T14:41:12;2.70;;;1.97;;
60935;SDS011;46804;51.786;19.520;2023-07-29T14:45:13;4.57;;;2.53;;
60935;SDS011;46804;51.786;19.520;2023-07-29T14:49:14;3.70;;;2.20;;
60935;SDS011;46804;51.786;19.520;2023-07-29T14:53:15;3.30;;;2.30;;
60935;SDS011;46804;51.786;19.520;2023-07-29T14:57:16;3.90;;;2.22;;
60935;SDS011;46804;51.786;19.520;2023-07-29T15:01:17;4.07;;;2.30;;
60935;SDS011;46804;51.786;19.520;2023-07-29T15:05:18;4.78;;;2.42;;
60935;SDS011;46804;51.786;19.520;2023-07-29T15:09:19;3.72;;;2.30;;
60935;SDS011;46804;51.786;19.520;2023-07-29T15:13:20;6.43;;;2.10;;
60935;SDS011;46804;51.786;19.520;2023-07-29T15:17:21;3.58;;;2.28;;
60935;SDS011;46804;51.786;19.520;2023-07-29T15:21:22;4.00;;;2.55;;
60935;SDS011;46804;51.786;19.520;2023-07-29T15:25:22;3.45;;;2.58;;
60935;SDS011;46804;51.786;19.520;2023-07-29T15:29:23;4.57;;;2.70;;
60935;SDS011;46804;51.786;19.520;2023-07-29T15:33:24;5.30;;;2.60;;
60935;SDS011;46804;51.786;19.520;2023-07-29T15:37:25;4.72;;;2.80;;
60935;SDS011;46804;51.786;19.520;2023-07-29T15:41:26;4.55;;;3.00;;
60935;SDS011;46804;51.786;19.520;2023-07-29T15:45:27;3.67;;;2.70;;
60935;SDS011;46804;51.786;19.520;2023-07-29T15:49:28;4.50;;;3.00;;
60935;SDS011;46804;51.786;19.520;2023-07-29T15:53:28;6.32;;;2.72;;
60935;SDS011;46804;51.786;19.520;2023-07-29T15:57:29;4.00;;;2.80;;
60935;SDS011;46804;51.786;19.520;2023-07-29T16:01:30;4.00;;;2.70;;
60935;SDS011;46804;51.786;19.520;2023-07-29T16:05:30;3.70;;;2.60;;
60935;SDS011;46804;51.786;19.520;2023-07-29T16:09:31;7.95;;;3.00;;
60935;SDS011;46804;51.786;19.520;2023-07-29T16:13:32;3.67;;;2.40;;
60935;SDS011;46804;51.786;19.520;2023-07-29T16:17:33;3.42;;;2.50;;
60935;SDS011;46804;51.786;19.520;2023-07-29T16:21:33;3.25;;;2.38;;
60935;SDS011;46804;51.786;19.520;2023-07-29T16:25:34;5.32;;;3.00;;
60935;SDS011;46804;51.786;19.520;2023-07-29T16:29:35;5.95;;;2.60;;
60935;SDS011;46804;51.786;19.520;2023-07-29T16:33:35;3.78;;;2.60;;
60935;SDS011;46804;51.786;19.520;2023-07-29T16:37:36;6.97;;;2.58;;
60935;SDS011;46804;51.786;19.520;2023-07-29T16:41:36;9.82;;;3.00;;
60935;SDS011;46804;51.786;19.520;2023-07-29T16:45:37;6.18;;;2.78;;
60935;SDS011;46804;51.786;19.520;2023-07-29T16:49:38;4.82;;;2.60;;
60935;SDS011;46804;51.786;19.520;2023-07-29T16:53:38;5.70;;;2.80;;
60935;SDS011;46804;51.786;19.520;2023-07-29T16:57:39;10.55;;;2.85;;
60935;SDS011;46804;51.786;19.520;2023-07-29T17:01:40;5.07;;;3.30;;
60935;SDS011;46804;51.786;19.520;2023-07-29T17:05:41;4.00;;;2.83;;
60935;SDS011;46804;51.786;19.520;2023-07-29T17:09:41;4.20;;;2.70;;
60935;SDS011;46804;51.786;19.520;2023-07-29T17:13:42;3.97;;;2.60;;
60935;SDS011;46804;51.786;19.520;2023-07-29T17:17:44;3.65;;;2.80;;
60935;SDS011;46804;51.786;19.520;2023-07-29T17:25:46;4.90;;;3.13;;
60935;SDS011;46804;51.786;19.520;2023-07-29T17:29:47;6.22;;;2.80;;
60935;SDS011;46804;51.786;19.520;2023-07-29T17:33:48;7.13;;;3.45;;
60935;SDS011;46804;51.786;19.520;2023-07-29T17:37:48;6.60;;;3.17;;
60935;SDS011;46804;51.786;19.520;2023-07-29T17:41:49;5.40;;;3.30;;
60935;SDS011;46804;51.786;19.520;2023-07-29T17:45:50;4.50;;;2.85;;
60935;SDS011;46804;51.786;19.520;2023-07-29T17:49:50;4.63;;;3.00;;
60935;SDS011;46804;51.786;19.520;2023-07-29T17:53:51;5.47;;;3.22;;
60935;SDS011;46804;51.786;19.520;2023-07-29T17:57:52;5.22;;;3.20;;
60935;SDS011;46804;51.786;19.520;2023-07-29T18:01:53;6.93;;;3.30;;
60935;SDS011;46804;51.786;19.520;2023-07-29T18:05:53;4.65;;;2.90;;
60935;SDS011;46804;51.786;19.520;2023-07-29T18:09:54;5.30;;;2.90;;
60935;SDS011;46804;51.786;19.520;2023-07-29T18:13:55;5.65;;;2.75;;
60935;SDS011;46804;51.786;19.520;2023-07-29T18:17:56;5.40;;;2.78;;
60935;SDS011;46804;51.786;19.520;2023-07-29T18:21:57;5.07;;;2.50;;
60935;SDS011;46804;51.786;19.520;2023-07-29T18:25:57;8.25;;;2.50;;
60935;SDS011;46804;51.786;19.520;2023-07-29T18:29:58;4.30;;;2.63;;
60935;SDS011;46804;51.786;19.520;2023-07-29T18:33:59;7.70;;;2.40;;
60935;SDS011;46804;51.786;19.520;2023-07-29T18:37:59;8.63;;;2.60;;
60935;SDS011;46804;51.786;19.520;2023-07-29T18:42:00;3.95;;;2.35;;
60935;SDS011;46804;51.786;19.520;2023-07-29T18:46:00;8.47;;;2.30;;
60935;SDS011;46804;51.786;19.520;2023-07-29T18:50:01;4.05;;;2.30;;
60935;SDS011;46804;51.786;19.520;2023-07-29T18:54:03;6.00;;;3.00;;
60935;SDS011;46804;51.786;19.520;2023-07-29T18:58:04;6.30;;;3.13;;
60935;SDS011;46804;51.786;19.520;2023-07-29T19:02:05;5.10;;;2.55;;
60935;SDS011;46804;51.786;19.520;2023-07-29T19:06:06;5.22;;;2.97;;
60935;SDS011;46804;51.786;19.520;2023-07-29T19:10:07;10.00;;;5.97;;
60935;SDS011;46804;51.786;19.520;2023-07-29T19:14:08;9.13;;;4.18;;
60935;SDS011;46804;51.786;19.520;2023-07-29T19:18:09;16.95;;;9.55;;
60935;SDS011;46804;51.786;19.520;2023-07-29T19:22:10;4.22;;;2.55;;
60935;SDS011;46804;51.786;19.520;2023-07-29T19:26:10;3.80;;;2.67;;
60935;SDS011;46804;51.786;19.520;2023-07-29T19:30:11;5.88;;;2.72;;
60935;SDS011;46804;51.786;19.520;2023-07-29T19:34:12;11.15;;;3.05;;
60935;SDS011;46804;51.786;19.520;2023-07-29T19:38:14;4.88;;;2.30;;
60935;SDS011;46804;51.786;19.520;2023-07-29T19:42:14;21.98;;;4.80;;
60935;SDS011;46804;51.786;19.520;2023-07-29T19:46:15;10.15;;;3.55;;
60935;SDS011;46804;51.786;19.520;2023-07-29T19:50:16;11.32;;;3.28;;
60935;SDS011;46804;51.786;19.520;2023-07-29T19:54:16;12.02;;;3.38;;
60935;SDS011;46804;51.786;19.520;2023-07-29T19:58:17;5.82;;;3.28;;
60935;SDS011;46804;51.786;19.520;2023-07-29T20:02:19;25.00;;;7.28;;
60935;SDS011;46804;51.786;19.520;2023-07-29T20:06:20;11.38;;;4.47;;
60935;SDS011;46804;51.786;19.520;2023-07-29T20:10:20;7.15;;;3.17;;
60935;SDS011;46804;51.786;19.520;2023-07-29T20:14:21;23.95;;;7.20;;
60935;SDS011;46804;51.786;19.520;2023-07-29T20:18:22;46.03;;;9.65;;
60935;SDS011;46804;51.786;19.520;2023-07-29T20:22:23;115.25;;;21.65;;
60935;SDS011;46804;51.786;19.520;2023-07-29T20:26:24;68.38;;;16.20;;
60935;SDS011;46804;51.786;19.520;2023-07-29T20:30:24;19.25;;;5.68;;
60935;SDS011;46804;51.786;19.520;2023-07-29T20:34:25;8.38;;;2.50;;
60935;SDS011;46804;51.786;19.520;2023-07-29T20:38:26;10.85;;;2.63;;
60935;SDS011;46804;51.786;19.520;2023-07-29T20:42:27;3.78;;;2.33;;
60935;SDS011;46804;51.786;19.520;2023-07-29T20:46:27;12.82;;;4.45;;
60935;SDS011;46804;51.786;19.520;2023-07-29T20:50:29;10.52;;;5.13;;
60935;SDS011;46804;51.786;19.520;2023-07-29T20:54:30;8.05;;;4.20;;
60935;SDS011;46804;51.786;19.520;2023-07-29T20:58:30;4.60;;;3.17;;
60935;SDS011;46804;51.786;19.520;2023-07-29T21:02:32;4.88;;;3.25;;
60935;SDS011;46804;51.786;19.520;2023-07-29T21:06:35;7.28;;;3.42;;
60935;SDS011;46804;51.786;19.520;2023-07-29T21:10:36;8.38;;;3.00;;
60935;SDS011;46804;51.786;19.520;2023-07-29T21:14:36;4.40;;;2.65;;
60935;SDS011;46804;51.786;19.520;2023-07-29T21:18:37;5.95;;;2.92;;
60935;SDS011;46804;51.786;19.520;2023-07-29T21:22:37;7.32;;;2.90;;
60935;SDS011;46804;51.786;19.520;2023-07-29T21:26:38;6.80;;;2.88;;
60935;SDS011;46804;51.786;19.520;2023-07-29T21:30:39;6.80;;;3.50;;
60935;SDS011;46804;51.786;19.520;2023-07-29T21:34:39;12.73;;;5.38;;
60935;SDS011;46804;51.786;19.520;2023-07-29T21:38:40;5.07;;;2.92;;
60935;SDS011;46804;51.786;19.520;2023-07-29T21:42:41;8.52;;;3.45;;
60935;SDS011;46804;51.786;19.520;2023-07-29T21:46:42;6.80;;;3.90;;
60935;SDS011;46804;51.786;19.520;2023-07-29T21:50:43;7.55;;;3.70;;
60935;SDS011;46804;51.786;19.520;2023-07-29T21:54:43;6.65;;;3.00;;
60935;SDS011;46804;51.786;19.520;2023-07-29T21:58:44;5.55;;;2.88;;
60935;SDS011;46804;51.786;19.520;2023-07-29T22:02:45;5.80;;;3.17;;
60935;SDS011;46804;51.786;19.520;2023-07-29T22:06:46;6.78;;;3.47;;
60935;SDS011;46804;51.786;19.520;2023-07-29T22:10:47;18.55;;;6.85;;
60935;SDS011;46804;51.786;19.520;2023-07-29T22:14:47;6.80;;;4.00;;
60935;SDS011;46804;51.786;19.520;2023-07-29T22:18:48;7.65;;;4.30;;
60935;SDS011;46804;51.786;19.520;2023-07-29T22:22:49;5.63;;;3.80;;
60935;SDS011;46804;51.786;19.520;2023-07-29T22:26:50;5.93;;;3.72;;
60935;SDS011;46804;51.786;19.520;2023-07-29T22:30:51;5.10;;;3.22;;
60935;SDS011;46804;51.786;19.520;2023-07-29T22:34:53;7.50;;;3.53;;
60935;SDS011;46804;51.786;19.520;2023-07-29T22:38:54;10.63;;;3.53;;
60935;SDS011;46804;51.786;19.520;2023-07-29T22:42:55;5.45;;;3.40;;
60935;SDS011;46804;51.786;19.520;2023-07-29T22:46:55;6.10;;;3.55;;
60935;SDS011;46804;51.786;19.520;2023-07-29T22:50:56;6.43;;;3.33;;
60935;SDS011;46804;51.786;19.520;2023-07-29T22:54:57;5.47;;;3.33;;
60935;SDS011;46804;51.786;19.520;2023-07-29T22:58:58;5.32;;;3.40;;
60935;SDS011;46804;51.786;19.520;2023-07-29T23:02:59;6.05;;;3.60;;
60935;SDS011;46804;51.786;19.520;2023-07-29T23:07:00;5.57;;;3.58;;
60935;SDS011;46804;51.786;19.520;2023-07-29T23:11:01;4.65;;;3.30;;
60935;SDS011;46804;51.786;19.520;2023-07-29T23:15:02;4.82;;;3.28;;
60935;SDS011;46804;51.786;19.520;2023-07-29T23:19:03;10.52;;;6.20;;
60935;SDS011;46804;51.786;19.520;2023-07-29T23:23:05;7.55;;;4.35;;
60935;SDS011;46804;51.786;19.520;2023-07-29T23:27:05;7.22;;;3.50;;
60935;SDS011;46804;51.786;19.520;2023-07-29T23:31:07;5.85;;;3.53;;
60935;SDS011;46804;51.786;19.520;2023-07-29T23:35:08;4.85;;;3.40;;
60935;SDS011;46804;51.786;19.520;2023-07-29T23:39:08;5.57;;;3.60;;
60935;SDS011;46804;51.786;19.520;2023-07-29T23:43:09;4.30;;;3.08;;
60935;SDS011;46804;51.786;19.520;2023-07-29T23:47:10;6.72;;;3.47;;
60935;SDS011;46804;51.786;19.520;2023-07-29T23:51:10;6.80;;;3.95;;